createdAt,value
2022-08-17T00:02:13.251Z,100863.91
2022-08-17T00:05:32.311Z,100874.59
2022-08-17T00:08:39.501Z,100868.44
2022-08-17T00:12:41.280Z,100873.56
2022-08-17T00:15:11.269Z,100867.38
2022-08-17T00:18:53.877Z,100864.06
2022-08-17T00:22:32.890Z,100872.78
2022-08-17T00:25:13.080Z,100874.75
2022-08-17T00:28:17.777Z,100874.84
2022-08-17T00:31:22.950Z,100872.03
2022-08-17T00:34:27.922Z,100878.47
2022-08-17T00:37:31.709Z,100874.31
2022-08-17T00:40:44.475Z,100875.44
2022-08-17T00:43:51.970Z,100876.56
2022-08-17T00:46:56.150Z,100865.97
2022-08-17T00:49:59.918Z,100872.69
2022-08-17T00:53:05.075Z,100875.00
2022-08-17T00:56:28.906Z,100868.25
2022-08-17T00:59:37.828Z,100871.38
2022-08-17T01:02:46.458Z,100865.19
2022-08-17T01:05:52.823Z,100863.00
2022-08-17T01:08:59.441Z,100864.13
2022-08-17T01:12:06.694Z,100857.16
2022-08-17T01:15:12.702Z,100862.22
2022-08-17T01:18:17.069Z,100861.69
2022-08-17T01:21:27.936Z,100876.53
2022-08-17T01:24:34.179Z,100872.34
2022-08-17T01:27:39.464Z,100873.53
2022-08-17T01:30:58.895Z,100871.03
2022-08-17T01:34:09.204Z,100868.53
2022-08-17T01:37:13.938Z,100872.44
2022-08-17T01:40:24.278Z,100870.78
2022-08-17T01:43:33.057Z,100875.00
2022-08-17T01:46:38.343Z,100871.69
2022-08-17T01:49:42.031Z,100876.47
2022-08-17T01:52:49.811Z,100880.41
2022-08-17T01:55:59.133Z,100874.25
2022-08-17T01:59:02.951Z,100872.59
2022-08-17T02:02:07.572Z,100877.94
2022-08-17T02:05:11.263Z,100878.25
2022-08-17T02:08:19.906Z,100872.13
2022-08-17T02:11:25.569Z,100887.25
2022-08-17T02:14:29.654Z,100889.53
2022-08-17T02:17:33.779Z,100887.84
2022-08-17T02:20:42.474Z,100875.84
2022-08-17T02:23:50.338Z,100878.94
2022-08-17T02:26:55.517Z,100880.34
2022-08-17T02:29:59.832Z,100876.72
2022-08-17T02:33:06.407Z,100881.78
2022-08-17T02:36:14.245Z,100887.16
2022-08-17T02:39:18.594Z,100885.78
2022-08-17T02:42:28.627Z,100888.59
2022-08-17T02:45:32.310Z,100892.81
2022-08-17T02:48:35.996Z,100891.44
2022-08-17T02:51:39.752Z,100894.53
2022-08-17T02:54:43.557Z,100885.31
2022-08-17T02:57:48.887Z,100893.19
2022-08-17T03:00:52.616Z,100895.44
2022-08-17T03:03:59.849Z,100889.31
2022-08-17T03:07:04.405Z,100882.34
2022-08-17T03:10:09.561Z,100877.34
2022-08-17T03:13:15.735Z,100876.50
2022-08-17T03:16:19.471Z,100882.41
2022-08-17T03:19:23.279Z,100888.56
2022-08-17T03:22:36.842Z,100882.16
2022-08-17T03:25:44.064Z,100877.94
2022-08-17T03:28:49.310Z,100886.66
2022-08-17T03:31:53.457Z,100886.13
2022-08-17T03:35:00.538Z,100877.72
2022-08-17T03:38:05.432Z,100887.00
2022-08-17T03:41:09.171Z,100885.84
2022-08-17T03:44:14.318Z,100880.56
2022-08-17T03:47:41.300Z,100878.91
2022-08-17T03:51:05.245Z,100869.66
2022-08-17T03:54:27.857Z,100879.50
2022-08-17T03:57:32.203Z,100875.56
2022-08-17T04:00:39.733Z,100877.53
2022-08-17T04:03:43.746Z,100881.75
2022-08-17T04:06:48.434Z,100884.03
2022-08-17T04:09:52.390Z,100874.25
2022-08-17T04:12:56.472Z,100883.47
2022-08-17T04:16:01.993Z,100877.34
2022-08-17T04:19:06.918Z,100878.47
2022-08-17T04:22:10.693Z,100887.16
2022-08-17T04:25:36.453Z,100887.44
2022-08-17T04:28:40.281Z,100892.22
2022-08-17T04:31:45.958Z,100891.38
2022-08-17T04:34:49.800Z,100884.13
2022-08-17T04:37:54.177Z,100895.63
2022-08-17T04:41:16.444Z,100885.53
2022-08-17T04:44:36.772Z,100888.63
2022-08-17T04:47:43.061Z,100886.13
2022-08-17T04:50:48.623Z,100893.69
2022-08-17T04:53:54.902Z,100894.84
2022-08-17T04:56:58.852Z,100891.47
2022-08-17T05:00:03.218Z,100895.44
2022-08-17T05:03:08.416Z,100896.00
2022-08-17T05:06:12.201Z,100907.22
2022-08-17T05:09:17.467Z,100899.06
2022-08-17T05:12:21.214Z,100897.44
2022-08-17T05:15:25.008Z,100903.31
2022-08-17T05:18:32.025Z,100899.38
2022-08-17T05:21:35.816Z,100904.97
2022-08-17T05:24:43.490Z,100906.66
2022-08-17T05:27:59.168Z,100913.06
2022-08-17T05:31:06.312Z,100918.97
2022-08-17T05:34:11.578Z,100917.91
2022-08-17T05:37:15.449Z,100917.91
2022-08-17T05:40:20.853Z,100913.97
2022-08-17T05:43:27.129Z,100913.97
2022-08-17T05:46:36.884Z,100922.06
2022-08-17T05:49:42.160Z,100915.63
2022-08-17T05:52:51.451Z,100918.97
2022-08-17T05:56:29.511Z,100909.44
2022-08-17T05:59:56.616Z,100913.94
2022-08-17T06:03:27.101Z,100914.47
2022-08-17T06:06:41.513Z,100918.63
2022-08-17T06:09:56.110Z,100931.81
2022-08-17T06:13:13.504Z,100927.56
2022-08-17T06:16:37.897Z,100925.63
2022-08-17T06:19:48.834Z,100919.72
2022-08-17T06:23:04.023Z,100923.31
2022-08-17T06:26:15.502Z,100924.38
2022-08-17T06:29:33.529Z,100929.41
2022-08-17T06:32:38.262Z,100923.22
2022-08-17T06:35:53.125Z,100924.31
2022-08-17T06:39:14.457Z,100922.56
2022-08-17T06:42:54.882Z,100923.13
2022-08-17T06:46:02.285Z,100927.28
2022-08-17T06:49:19.865Z,100927.53
2022-08-17T06:52:46.297Z,100925.28
2022-08-17T06:55:59.929Z,100925.78
2022-08-17T06:59:05.422Z,100936.88
2022-08-17T07:02:14.080Z,100936.22
2022-08-17T07:05:20.949Z,100927.44
2022-08-17T07:08:35.285Z,100936.75
2022-08-17T07:11:49.112Z,100928.09
2022-08-17T07:15:10.013Z,100929.13
2022-08-17T07:18:15.635Z,100931.84
2022-08-17T07:21:33.437Z,100930.63
2022-08-17T07:24:47.277Z,100931.13
2022-08-17T07:27:56.005Z,100924.91
2022-08-17T07:31:00.019Z,100928.28
2022-08-17T07:34:14.555Z,100931.59
2022-08-17T07:37:20.617Z,100928.72
2022-08-17T07:40:31.535Z,100934.56
2022-08-17T07:43:46.140Z,100934.81
2022-08-17T07:47:09.458Z,100937.00
2022-08-17T07:50:28.954Z,100921.75
2022-08-17T07:53:33.042Z,100929.03
2022-08-17T07:56:44.477Z,100928.44
2022-08-17T08:00:19.563Z,100941.53
2022-08-17T08:03:34.076Z,100942.38
2022-08-17T08:06:52.719Z,100940.31
2022-08-17T08:10:07.013Z,100937.22
2022-08-17T08:13:14.630Z,100938.06
2022-08-17T08:16:30.650Z,100939.94
2022-08-17T08:19:37.612Z,100944.44
2022-08-17T08:22:51.354Z,100946.63
2022-08-17T08:26:13.152Z,100941.22
2022-08-17T08:29:28.413Z,100949.88
2022-08-17T08:32:48.623Z,100952.91
2022-08-17T08:35:58.948Z,100956.53
2022-08-17T08:39:07.441Z,100960.44
2022-08-17T08:42:23.846Z,100969.41
2022-08-17T08:45:39.191Z,100954.19
2022-08-17T08:49:11.997Z,100964.00
2022-08-17T08:52:30.902Z,100972.09
2022-08-17T08:55:54.266Z,100964.22
2022-08-17T08:59:07.293Z,100964.22
2022-08-17T09:02:24.848Z,100970.88
2022-08-17T09:05:44.041Z,100972.56
2022-08-17T09:09:03.006Z,100968.63
2022-08-17T09:12:21.348Z,100968.00
2022-08-17T09:15:29.837Z,100972.50
2022-08-17T09:19:03.386Z,100967.38
2022-08-17T09:22:12.057Z,100966.75
2022-08-17T09:25:18.535Z,100979.69
2022-08-17T09:28:28.844Z,100971.75
2022-08-17T09:31:49.257Z,100961.38
2022-08-17T09:35:11.370Z,100972.81
2022-08-17T09:38:31.850Z,100976.16
2022-08-17T09:41:48.680Z,100974.19
2022-08-17T09:45:04.134Z,100969.72
2022-08-17T09:48:18.826Z,100967.41
2022-08-17T09:51:32.136Z,100966.28
2022-08-17T09:54:40.657Z,100967.13
2022-08-17T09:58:04.972Z,100962.03
2022-08-17T10:01:21.240Z,100957.22
2022-08-17T10:04:39.728Z,100961.41
2022-08-17T10:07:48.405Z,100970.97
2022-08-17T10:11:05.686Z,100967.03
2022-08-17T10:14:37.231Z,100961.91
2022-08-17T10:17:47.712Z,100966.41
2022-08-17T10:21:21.906Z,100965.28
2022-08-17T10:25:21.343Z,100967.47
2022-08-17T10:28:25.874Z,100960.41
2022-08-17T10:31:39.982Z,100956.44
2022-08-17T10:34:56.306Z,100957.28
2022-08-17T10:38:21.548Z,100951.03
2022-08-17T10:41:36.843Z,100952.16
2022-08-17T10:44:51.348Z,100947.09
2022-08-17T10:48:05.156Z,100948.75
2022-08-17T10:51:12.795Z,100936.38
2022-08-17T10:54:38.909Z,100944.16
2022-08-17T10:57:51.911Z,100945.84
2022-08-17T11:01:02.301Z,100941.88
2022-08-17T11:04:25.063Z,100954.78
2022-08-17T11:07:46.334Z,100945.25
2022-08-17T11:11:09.756Z,100932.56
2022-08-17T11:14:36.620Z,100922.16
2022-08-17T11:18:17.860Z,100921.53
2022-08-17T11:21:47.575Z,100918.22
2022-08-17T11:24:54.710Z,100924.13
2022-08-17T11:28:09.329Z,100910.91
2022-08-17T11:31:37.790Z,100915.72
2022-08-17T11:34:44.934Z,100922.78
2022-08-17T11:38:00.065Z,100921.06
2022-08-17T11:41:22.357Z,100914.84
2022-08-17T11:44:47.941Z,100914.84
2022-08-17T11:48:27.724Z,100914.34
2022-08-17T11:52:04.985Z,100919.66
2022-08-17T11:55:37.474Z,100909.81
2022-08-17T11:58:45.931Z,100912.13
2022-08-17T12:01:55.793Z,100913.78
2022-08-17T12:05:12.323Z,100908.16
2022-08-17T12:08:21.622Z,100906.50
2022-08-17T12:12:11.042Z,100900.88
2022-08-17T12:15:10.076Z,100904.84
2022-08-17T12:18:21.130Z,100909.31
2022-08-17T12:21:37.446Z,100891.91
2022-08-17T12:24:55.695Z,100895.28
2022-08-17T12:28:05.623Z,100904.84
2022-08-17T12:31:18.991Z,100899.72
2022-08-17T12:34:27.656Z,100892.16
2022-08-17T12:37:35.668Z,100901.97
2022-08-17T12:40:39.477Z,100890.09
2022-08-17T12:43:44.730Z,100891.16
2022-08-17T12:46:56.131Z,100884.06
2022-08-17T12:50:28.478Z,100889.03
2022-08-17T12:53:35.197Z,100879.47
2022-08-17T12:56:40.328Z,100876.34
2022-08-17T12:59:50.139Z,100883.00
2022-08-17T13:02:56.327Z,100879.06
2022-08-17T13:06:02.274Z,100873.94
2022-08-17T13:09:11.663Z,100867.69
2022-08-17T13:12:15.408Z,100857.00
2022-08-17T13:15:27.488Z,100860.31
2022-08-17T13:18:41.823Z,100857.69
2022-08-17T13:21:47.887Z,100858.53
2022-08-17T13:24:54.477Z,100861.84
2022-08-17T13:27:58.812Z,100861.53
2022-08-17T13:31:52.076Z,100860.06
2022-08-17T13:35:14.381Z,100859.25
2022-08-17T13:38:40.549Z,100853.81
2022-08-17T13:41:44.581Z,100844.88
2022-08-17T13:44:48.636Z,100845.69
2022-08-17T13:48:06.425Z,100842.56
2022-08-17T13:51:18.389Z,100835.28
2022-08-17T13:54:27.876Z,100837.59
2022-08-17T13:57:32.197Z,100830.28
2022-08-17T14:00:37.451Z,100838.72
2022-08-17T14:03:42.599Z,100837.09
2022-08-17T14:06:54.027Z,100830.28
2022-08-17T14:10:01.500Z,100829.47
2022-08-17T14:13:05.452Z,100832.59
2022-08-17T14:16:09.307Z,100837.41
2022-08-17T14:19:15.877Z,100834.28
2022-08-17T14:22:23.741Z,100838.22
2022-08-17T14:25:29.957Z,100828.97
2022-08-17T14:28:34.090Z,100832.59
2022-08-17T14:31:40.318Z,100825.31
2022-08-17T14:34:49.569Z,100818.03
2022-08-17T14:37:54.120Z,100812.41
2022-08-17T14:40:58.559Z,100819.69
2022-08-17T14:44:02.574Z,100810.09
2022-08-17T14:47:07.197Z,100815.41
2022-08-17T14:50:19.534Z,100808.97
2022-08-17T14:53:23.360Z,100815.09
2022-08-17T14:56:27.365Z,100811.13
2022-08-17T14:59:35.625Z,100802.38
2022-08-17T15:02:48.259Z,100804.03
2022-08-17T15:05:53.907Z,100803.22
2022-08-17T15:08:57.626Z,100804.88
2022-08-17T15:12:03.096Z,100806.56
2022-08-17T15:15:08.540Z,100801.75
2022-08-17T15:18:12.312Z,100802.56
2022-08-17T15:21:18.200Z,100801.75
2022-08-17T15:24:22.022Z,100797.78
2022-08-17T15:27:32.590Z,100798.63
2022-08-17T15:30:36.960Z,100800.28
2022-08-17T15:33:40.996Z,100795.50
2022-08-17T15:36:49.373Z,100790.69
2022-08-17T15:39:53.781Z,100790.69
2022-08-17T15:42:57.924Z,100785.06
2022-08-17T15:46:04.807Z,100788.19
2022-08-17T15:49:09.104Z,100781.75
2022-08-17T15:52:19.700Z,100770.50
2022-08-17T15:55:24.252Z,100755.94
2022-08-17T15:58:32.253Z,100761.56
2022-08-17T16:02:20.012Z,100753.94
2022-08-17T16:05:05.824Z,100749.66
2022-08-17T16:08:20.728Z,100754.66
2022-08-17T16:11:25.294Z,100749.53
2022-08-17T16:14:34.829Z,100746.41
2022-08-17T16:17:40.765Z,100744.94
2022-08-17T16:20:44.575Z,100742.63
2022-08-17T16:23:51.474Z,100744.78
2022-08-17T16:26:55.597Z,100737.22
2022-08-17T16:29:59.395Z,100748.13
2022-08-17T16:33:03.575Z,100745.84
2022-08-17T16:36:08.364Z,100742.72
2022-08-17T16:39:14.888Z,100744.38
2022-08-17T16:42:28.225Z,100737.31
2022-08-17T16:45:40.162Z,100726.03
2022-08-17T16:48:46.374Z,100721.56
2022-08-17T16:51:50.183Z,100724.38
2022-08-17T16:54:56.511Z,100732.50
2022-08-17T16:58:00.876Z,100730.00
2022-08-17T17:01:05.521Z,100731.16
2022-08-17T17:04:14.719Z,100737.94
2022-08-17T17:07:38.879Z,100737.94
2022-08-17T17:10:47.090Z,100731.78
2022-08-17T17:13:55.223Z,100728.44
2022-08-17T17:17:04.510Z,100722.81
2022-08-17T17:20:13.165Z,100725.09
2022-08-17T17:23:31.393Z,100726.28
2022-08-17T17:26:52.058Z,100725.75
2022-08-17T17:30:08.662Z,100749.41
2022-08-17T17:33:17.424Z,100824.00
2022-08-17T17:36:27.267Z,100845.69
2022-08-17T17:39:41.668Z,100835.56
2022-08-17T17:42:51.340Z,100823.78
2022-08-17T17:45:58.696Z,100847.47
2022-08-17T17:49:23.326Z,100892.78
2022-08-17T17:52:36.260Z,100919.22
2022-08-17T17:55:59.539Z,100927.97
2022-08-17T17:59:15.101Z,100918.19
2022-08-17T18:02:52.625Z,100930.88
2022-08-17T18:06:09.745Z,100927.25
2022-08-17T18:09:33.913Z,100930.38
2022-08-17T18:12:44.897Z,100900.91
2022-08-17T18:15:54.067Z,100880.72
2022-08-17T18:18:58.051Z,100870.09
2022-08-17T18:22:08.300Z,100873.41
2022-08-17T18:25:40.337Z,100882.69
2022-08-17T18:28:44.333Z,100884.97
2022-08-17T18:31:52.608Z,100889.47
2022-08-17T18:34:59.644Z,100883.00
2022-08-17T18:38:22.556Z,100883.84
2022-08-17T18:41:30.435Z,100883.31
2022-08-17T18:44:45.271Z,100869.25
2022-08-17T18:47:55.987Z,100868.22
2022-08-17T18:51:02.018Z,100861.75
2022-08-17T18:54:15.203Z,100862.63
2022-08-17T18:57:31.012Z,100862.63
2022-08-17T19:00:38.393Z,100871.34
2022-08-17T19:03:46.504Z,100870.50
2022-08-17T19:07:04.667Z,100859.25
2022-08-17T19:10:21.801Z,100859.25
2022-08-17T19:13:32.408Z,100862.38
2022-08-17T19:16:49.168Z,100858.75
2022-08-17T19:19:59.063Z,100870.00
2022-08-17T19:23:16.634Z,100867.19
2022-08-17T19:26:53.258Z,100859.91
2022-08-17T19:29:55.916Z,100859.06
2022-08-17T19:32:59.732Z,100850.97
2022-08-17T19:36:08.784Z,100859.38
2022-08-17T19:39:26.563Z,100852.59
2022-08-17T19:42:53.844Z,100849.78
2022-08-17T19:46:06.142Z,100848.66
2022-08-17T19:49:17.129Z,100849.78
2022-08-17T19:52:40.171Z,100848.66
2022-08-17T19:55:52.354Z,100842.22
2022-08-17T19:59:02.653Z,100843.03
2022-08-17T20:02:23.181Z,100848.66
2022-08-17T20:05:30.199Z,100842.41
2022-08-17T20:08:39.867Z,100841.13
2022-08-17T20:11:48.541Z,100844.66
2022-08-17T20:14:57.196Z,100854.63
2022-08-17T20:18:03.430Z,100844.13
2022-08-17T20:21:20.475Z,100847.31
2022-08-17T20:24:33.609Z,100843.56
2022-08-17T20:27:50.806Z,100855.25
2022-08-17T20:30:55.334Z,100857.72
2022-08-17T20:34:37.046Z,100854.81
2022-08-17T20:37:44.675Z,100862.63
2022-08-17T20:41:13.796Z,100868.13
2022-08-17T20:44:33.635Z,100866.31
2022-08-17T20:48:07.486Z,100868.81
2022-08-17T20:51:24.363Z,100866.22
2022-08-17T20:54:50.482Z,100862.25
2022-08-17T20:57:54.570Z,100847.00
2022-08-17T21:01:13.021Z,100855.34
2022-08-17T21:04:44.773Z,100853.03
2022-08-17T21:07:58.116Z,100856.69
2022-08-17T21:11:20.412Z,100850.75
2022-08-17T21:14:58.063Z,100855.72
2022-08-17T21:18:10.475Z,100860.50
2022-08-17T21:21:25.132Z,100863.66
2022-08-17T21:24:43.515Z,100858.00
2022-08-17T21:27:58.572Z,100866.78
2022-08-17T21:31:09.206Z,100865.56
2022-08-17T21:34:30.091Z,100886.56
2022-08-17T21:37:41.905Z,100884.47
2022-08-17T21:40:50.080Z,100880.13
2022-08-17T21:43:57.208Z,100875.78
2022-08-17T21:47:15.917Z,100875.84
2022-08-17T21:50:22.421Z,100877.75
2022-08-17T21:53:33.315Z,100877.03
2022-08-17T21:56:41.739Z,100873.50
2022-08-17T21:59:45.711Z,100866.34
2022-08-17T22:02:55.915Z,100865.28
2022-08-17T22:05:59.682Z,100868.22
2022-08-17T22:09:13.734Z,100868.84
2022-08-17T22:12:20.522Z,100862.19
2022-08-17T22:15:24.402Z,100865.09
2022-08-17T22:18:29.252Z,100865.72
2022-08-17T22:21:33.061Z,100855.13
2022-08-17T22:24:37.358Z,100856.56
2022-08-17T22:27:56.478Z,100854.09
2022-08-17T22:31:01.665Z,100852.22
2022-08-17T22:34:13.668Z,100848.00
2022-08-17T22:37:27.486Z,100846.97
2022-08-17T22:40:35.037Z,100848.75
2022-08-17T22:43:43.080Z,100853.34
2022-08-17T22:46:58.867Z,100854.16
2022-08-17T22:50:05.952Z,100856.78
2022-08-17T22:53:33.633Z,100850.59
2022-08-17T22:56:55.542Z,100855.19
2022-08-17T23:00:01.093Z,100855.50
2022-08-17T23:03:10.537Z,100858.63
2022-08-17T23:06:14.295Z,100862.03
2022-08-17T23:09:18.112Z,100857.59
2022-08-17T23:12:27.416Z,100850.31
2022-08-17T23:15:34.000Z,100857.38
2022-08-17T23:18:37.951Z,100851.56
2022-08-17T23:21:44.782Z,100855.50
2022-08-17T23:24:50.676Z,100854.94
2022-08-17T23:27:54.543Z,100853.31
2022-08-17T23:30:59.768Z,100861.19
2022-08-17T23:34:04.930Z,100863.19
2022-08-17T23:37:12.889Z,100855.88
2022-08-17T23:40:16.873Z,100854.25
2022-08-17T23:43:25.534Z,100847.25
2022-08-17T23:46:32.792Z,100848.41
2022-08-17T23:49:37.476Z,100849.84
2022-08-17T23:52:42.434Z,100849.63
2022-08-17T23:55:46.178Z,100858.38
2022-08-17T23:59:08.326Z,100859.81
